Terminal Aerodrome Forecast
Issued by NWS Louisville, KY

Home | Current Version | Previous Version | Text Only | Print | Product List | Glossary On
Versions: 1 2 3 4 5 6 7 8 9 10 11 12 13 14 15 16 17 18
000
FTUS43 KLMK 252300
TAFBWG
TAF
KBWG 252326Z 2600/2624 VRB03KT P6SM SCT250
     FM260900 VRB03KT 5SM BR SCT250
      TEMPO 2609/2611 3SM BR
     FM261300 VRB04KT P6SM SCT200=

USA.gov is the U.S. government's official web portal to all federal, state and local government web resources and services.